Time;durP1;ratioP1;P1;durP2;ratioP2;P2;SDS_P1;SDS_P2;PMS_P1;PMS_P2;Temp;Humidity;BMP_temperature;BMP_pressure;BME280_temperature;BME280_humidity;BME280_pressure;Samples;Min_cycle;Max_cycle;Signal;HPM_P1;HPM_P2
2021/12/12 00:01:53;;;;;;;0.10;0.10;;;1.00;99.90;226.50;231333.00;;;;5020894;28;20195;-72
2021/12/12 00:04:32;;;;;;;0.10;0.10;;;1.00;99.90;226.50;231333.00;;;;5021388;28;21472;-72
2021/12/12 00:07:06;;;;;;;0.10;0.10;;;1.10;99.90;226.50;231333.00;;;;5021910;28;20261;-75
2021/12/12 00:09:39;;;;;;;0.20;0.20;;;1.00;99.90;226.50;231333.00;;;;5022166;28;20258;-73
2021/12/12 00:12:15;;;;;;;0.10;0.10;;;1.00;99.90;226.50;231333.00;;;;5020013;28;20658;-72
2021/12/12 00:14:44;;;;;;;0.10;0.10;;;0.80;99.90;226.50;231333.00;;;;5021449;28;20203;-72
2021/12/12 00:17:15;;;;;;;0.10;0.10;;;0.80;99.90;226.50;231333.00;;;;5020272;28;20204;-73
2021/12/12 00:19:43;;;;;;;0.10;0.10;;;0.80;99.90;226.50;231333.00;;;;5020273;28;20223;-71
2021/12/12 00:22:18;;;;;;;0.10;0.10;;;0.80;99.90;226.50;231333.00;;;;5023757;28;20216;-72
2021/12/12 00:24:47;;;;;;;0.10;0.10;;;0.90;99.90;226.50;231333.00;;;;5023902;28;20195;-73
2021/12/12 00:27:16;;;;;;;0.10;0.10;;;0.90;99.90;226.50;231333.00;;;;5025474;28;20199;-75
2021/12/12 00:29:44;;;;;;;0.17;0.17;;;1.00;99.90;226.50;231333.00;;;;5022813;28;20207;-72
2021/12/12 00:32:17;;;;;;;0.10;0.10;;;1.00;99.90;226.50;231333.00;;;;5004391;28;20223;-72
2021/12/12 00:34:50;;;;;;;0.20;0.20;;;1.00;99.90;226.50;231333.00;;;;5023520;28;20195;-72
2021/12/12 00:37:19;;;;;;;0.10;0.10;;;1.00;99.90;226.50;231333.00;;;;5023926;28;20204;-72
2021/12/12 00:39:52;;;;;;;0.10;0.10;;;1.00;99.90;226.50;231333.00;;;;5021948;28;20210;-72
2021/12/12 00:42:25;;;;;;;0.10;0.10;;;1.10;99.90;226.50;231333.00;;;;5021653;28;20214;-72
2021/12/12 00:45:00;;;;;;;0.10;0.10;;;1.10;99.90;226.50;231333.00;;;;5024270;28;20208;-72
2021/12/12 00:47:30;;;;;;;0.10;0.10;;;1.10;99.90;226.50;231333.00;;;;5022693;28;20208;-72
2021/12/12 00:50:13;;;;;;;0.10;0.10;;;1.10;99.90;226.50;231333.00;;;;5023154;28;20205;-72
2021/12/12 00:52:45;;;;;;;0.10;0.10;;;1.10;99.90;226.50;231333.00;;;;5023246;28;20214;-72
2021/12/12 00:55:13;;;;;;;0.10;0.10;;;1.10;99.90;226.50;231333.00;;;;5001604;28;20203;-72
2021/12/12 00:57:41;;;;;;;0.10;0.10;;;1.10;99.90;226.50;231333.00;;;;5016701;28;20202;-73
2021/12/12 01:00:14;;;;;;;0.10;0.10;;;1.20;99.90;226.50;231333.00;;;;5019376;28;20296;-72
2021/12/12 01:02:44;;;;;;;0.10;0.10;;;1.20;99.90;226.50;231333.00;;;;5017826;28;20231;-72
2021/12/12 01:05:14;;;;;;;0.10;0.10;;;1.30;99.90;226.50;231333.00;;;;5018170;28;20199;-72
2021/12/12 01:07:45;;;;;;;0.10;0.10;;;1.30;99.90;226.50;231333.00;;;;5016467;28;20526;-72
2021/12/12 01:10:21;;;;;;;0.10;0.10;;;1.30;99.90;226.50;231333.00;;;;5018699;28;20191;-72
2021/12/12 01:12:51;;;;;;;0.10;0.10;;;1.30;99.90;226.50;231333.00;;;;5019391;28;20214;-72
2021/12/12 01:15:25;;;;;;;0.10;0.10;;;1.30;99.90;226.50;231333.00;;;;5018466;28;20677;-72
2021/12/12 01:18:03;;;;;;;0.10;0.10;;;1.20;99.90;226.50;231333.00;;;;5018869;28;20258;-72
2021/12/12 01:20:39;;;;;;;0.10;0.10;;;1.20;99.90;226.50;231333.00;;;;5018479;28;20261;-72
2021/12/12 01:23:13;;;;;;;0.10;0.10;;;1.30;99.90;226.50;231333.00;;;;5018723;28;20696;-72
2021/12/12 01:25:45;;;;;;;0.10;0.10;;;1.30;99.90;226.50;231333.00;;;;5019430;28;20202;-72
2021/12/12 01:28:17;;;;;;;0.10;0.10;;;1.30;99.90;226.50;231333.00;;;;5018591;28;20664;-73
2021/12/12 01:30:48;;;;;;;0.10;0.10;;;1.30;99.90;226.50;231333.00;;;;5018332;28;20199;-73
2021/12/12 01:33:31;;;;;;;0.10;0.10;;;1.30;99.90;226.50;231333.00;;;;5021374;28;20214;-73
2021/12/12 01:36:00;;;;;;;0.10;0.10;;;1.30;99.90;226.50;231333.00;;;;5022636;28;20749;-73
2021/12/12 01:41:15;;;;;;;0.10;0.10;;;1.40;99.90;226.50;231333.00;;;;5022619;28;20270;-73
2021/12/12 01:43:49;;;;;;;0.10;0.10;;;1.40;99.90;226.50;231333.00;;;;5021849;28;20282;-73
2021/12/12 01:46:24;;;;;;;0.13;0.13;;;1.40;99.90;226.50;231333.00;;;;5022824;28;20206;-73
2021/12/12 01:48:58;;;;;;;0.10;0.10;;;1.50;99.90;226.50;231333.00;;;;5021164;28;20206;-73
2021/12/12 01:51:28;;;;;;;0.10;0.10;;;1.50;99.90;226.50;231333.00;;;;5022547;28;20227;-72
2021/12/12 01:54:06;;;;;;;0.10;0.10;;;1.60;99.90;226.50;231333.00;;;;5022495;28;20216;-72
2021/12/12 01:56:42;;;;;;;0.10;0.10;;;1.60;99.90;226.50;231333.00;;;;5024576;28;20257;-72
2021/12/12 01:59:13;;;;;;;0.10;0.10;;;1.70;99.90;226.50;231333.00;;;;5024946;28;20241;-73
2021/12/12 02:01:48;;;;;;;0.10;0.10;;;1.70;99.90;226.50;231333.00;;;;5032305;28;20188;-73
2021/12/12 02:04:24;;;;;;;0.10;0.10;;;1.70;99.90;226.50;231333.00;;;;5031937;28;20281;-73
2021/12/12 02:06:55;;;;;;;0.10;0.10;;;1.70;99.90;226.50;231333.00;;;;5022923;28;20226;-72
2021/12/12 02:09:25;;;;;;;0.10;0.10;;;1.60;99.90;226.50;231333.00;;;;5022577;28;20192;-73
2021/12/12 02:11:59;;;;;;;0.10;0.10;;;1.60;99.90;226.50;231333.00;;;;5022242;28;20206;-73
2021/12/12 02:14:29;;;;;;;0.10;0.10;;;1.60;99.90;226.50;231333.00;;;;5022124;28;20565;-73
2021/12/12 02:17:02;;;;;;;0.10;0.10;;;1.70;99.90;226.50;231333.00;;;;5021553;28;20203;-73
2021/12/12 02:19:40;;;;;;;0.10;0.10;;;1.60;99.90;226.50;231333.00;;;;5020585;28;20271;-73
2021/12/12 02:22:34;;;;;;;0.10;0.10;;;1.60;99.90;226.50;231333.00;;;;5021206;28;20219;-74
2021/12/12 02:36:17;;;;;;;0.10;0.10;;;1.80;99.90;226.50;231333.00;;;;5027183;28;20199;-73
2021/12/12 02:38:49;;;;;;;0.10;0.10;;;1.80;99.90;226.50;231333.00;;;;5028671;28;20199;-74
2021/12/12 02:41:22;;;;;;;0.10;0.10;;;1.90;99.90;226.50;231333.00;;;;5030948;28;20196;-74
2021/12/12 02:43:55;;;;;;;0.10;0.10;;;2.00;99.90;226.50;231333.00;;;;5028294;28;20207;-72
2021/12/12 02:46:28;;;;;;;0.10;0.10;;;2.00;99.90;226.50;231333.00;;;;5031867;28;20236;-74
2021/12/12 02:49:06;;;;;;;0.10;0.10;;;1.90;99.90;226.50;231333.00;;;;5031467;28;20680;-73
2021/12/12 02:51:39;;;;;;;0.10;0.10;;;1.90;99.90;226.50;231333.00;;;;5032014;28;20222;-73
2021/12/12 02:54:11;;;;;;;0.10;0.10;;;1.90;99.90;226.50;231333.00;;;;5025278;28;20219;-73
2021/12/12 02:56:44;;;;;;;0.10;0.10;;;1.90;99.90;226.50;231333.00;;;;5021811;28;20254;-73
2021/12/12 02:59:18;;;;;;;0.10;0.10;;;1.90;99.90;226.50;231333.00;;;;5020419;28;20192;-73
2021/12/12 03:01:54;;;;;;;0.10;0.10;;;1.90;99.90;226.50;231333.00;;;;5025789;28;20261;-73
2021/12/12 03:04:25;;;;;;;0.10;0.10;;;1.90;99.90;226.50;231333.00;;;;5020684;28;20206;-73
2021/12/12 03:06:56;;;;;;;0.10;0.10;;;1.90;99.90;226.50;231333.00;;;;5020817;28;20192;-73
2021/12/12 03:09:31;;;;;;;0.10;0.10;;;1.90;99.90;226.50;231333.00;;;;5021808;28;20604;-73
2021/12/12 03:12:05;;;;;;;0.10;0.10;;;1.90;99.90;226.50;231333.00;;;;5021198;28;20202;-72
2021/12/12 03:14:36;;;;;;;0.10;0.10;;;1.90;99.90;226.50;231333.00;;;;5021741;28;20197;-73
2021/12/12 03:17:10;;;;;;;0.10;0.10;;;1.90;99.90;226.50;231333.00;;;;5020910;28;20222;-74
2021/12/12 03:19:38;;;;;;;0.10;0.10;;;1.90;99.90;226.50;231333.00;;;;5020994;28;20215;-74
2021/12/12 03:22:10;;;;;;;0.10;0.10;;;1.90;99.90;226.50;231333.00;;;;5020020;28;20262;-74
2021/12/12 03:24:39;;;;;;;0.10;0.10;;;1.90;99.90;226.50;231333.00;;;;5021040;28;20734;-73
2021/12/12 03:27:10;;;;;;;0.10;0.10;;;1.90;99.90;226.50;231333.00;;;;5020543;28;20210;-72
2021/12/12 03:29:41;;;;;;;0.10;0.10;;;1.90;99.90;226.50;231333.00;;;;5021537;28;20246;-73
2021/12/12 03:32:13;;;;;;;0.10;0.10;;;1.90;99.90;226.50;231333.00;;;;5021007;28;20223;-72
2021/12/12 03:34:47;;;;;;;0.10;0.10;;;1.90;99.90;226.50;231333.00;;;;5023257;28;20597;-72
2021/12/12 03:37:19;;;;;;;0.10;0.10;;;2.00;99.90;226.50;231333.00;;;;5021337;28;20199;-72
2021/12/12 03:39:56;;;;;;;0.10;0.10;;;2.00;99.90;226.50;231333.00;;;;5020404;28;20220;-72
2021/12/12 03:42:29;;;;;;;0.10;0.10;;;2.00;99.90;226.50;231333.00;;;;5020229;28;20272;-73
2021/12/12 03:45:00;;;;;;;0.10;0.10;;;2.00;99.90;226.50;231333.00;;;;5020819;28;20198;-72
2021/12/12 03:47:34;;;;;;;0.10;0.10;;;2.10;99.90;226.50;231333.00;;;;5020442;28;20203;-73
2021/12/12 03:50:09;;;;;;;0.10;0.10;;;2.10;99.90;226.50;231333.00;;;;5019822;28;20676;-73
2021/12/12 03:52:37;;;;;;;0.10;0.10;;;2.20;99.90;226.50;231333.00;;;;5019769;28;20222;-73
2021/12/12 03:55:09;;;;;;;0.10;0.10;;;2.10;99.90;226.50;231333.00;;;;5018756;28;20536;-73
2021/12/12 03:57:37;;;;;;;0.10;0.10;;;2.10;99.90;226.50;231333.00;;;;5020276;28;20672;-73
2021/12/12 04:00:13;;;;;;;0.10;0.10;;;2.00;99.90;226.50;231333.00;;;;5019546;28;20215;-73
2021/12/12 04:02:42;;;;;;;0.10;0.10;;;2.00;99.90;226.50;231333.00;;;;5019891;28;20289;-75
2021/12/12 04:05:10;;;;;;;0.10;0.10;;;2.00;99.90;226.50;231333.00;;;;5020128;28;20250;-72
2021/12/12 04:07:39;;;;;;;0.10;0.10;;;2.00;99.90;226.50;231333.00;;;;5019960;28;20219;-72
2021/12/12 04:10:13;;;;;;;0.10;0.10;;;2.00;99.90;226.50;231333.00;;;;5019701;28;20202;-72
2021/12/12 04:12:41;;;;;;;0.20;0.20;;;1.90;99.90;226.50;231333.00;;;;5019675;28;20219;-72
2021/12/12 04:15:11;;;;;;;0.10;0.10;;;1.90;99.90;226.50;231333.00;;;;5019906;28;20202;-73
2021/12/12 04:17:40;;;;;;;0.10;0.10;;;1.90;99.90;226.50;231333.00;;;;5020041;28;20607;-72
2021/12/12 04:20:15;;;;;;;0.10;0.10;;;1.90;99.90;226.50;231333.00;;;;5020342;28;20218;-75
2021/12/12 04:22:43;;;;;;;0.10;0.10;;;1.90;99.90;226.50;231333.00;;;;5026495;28;20281;-72
2021/12/12 04:25:14;;;;;;;0.10;0.10;;;1.80;99.90;226.50;231333.00;;;;5020436;28;20202;-72
2021/12/12 04:27:43;;;;;;;0.10;0.10;;;1.90;99.90;226.50;231333.00;;;;5018671;28;20203;-72
2021/12/12 04:30:14;;;;;;;0.10;0.10;;;1.80;99.90;226.50;231333.00;;;;5019362;28;20203;-72
2021/12/12 04:32:45;;;;;;;0.10;0.10;;;1.90;99.90;226.50;231333.00;;;;5019941;28;20227;-72
2021/12/12 04:35:17;;;;;;;0.10;0.10;;;1.80;99.90;226.50;231333.00;;;;5019609;28;20200;-72
2021/12/12 04:37:45;;;;;;;0.10;0.10;;;1.80;99.90;226.50;231333.00;;;;5019423;28;20254;-71
2021/12/12 04:40:20;;;;;;;0.10;0.10;;;1.70;99.90;226.50;231333.00;;;;5019843;28;20597;-72
2021/12/12 04:42:53;;;;;;;0.10;0.10;;;1.80;99.90;226.50;231333.00;;;;5019015;28;20250;-72
2021/12/12 04:45:51;;;;;;;0.10;0.10;;;1.80;99.90;226.50;231333.00;;;;5020416;28;20219;-72
2021/12/12 04:51:22;;;;;;;0.10;0.10;;;1.70;99.90;226.50;231333.00;;;;5019250;28;20199;-72
2021/12/12 04:53:57;;;;;;;0.10;0.10;;;1.70;99.90;226.50;231333.00;;;;5018646;28;20219;-73
2021/12/12 04:56:33;;;;;;;0.10;0.10;;;1.70;99.90;226.50;231333.00;;;;5018762;28;20194;-72
2021/12/12 04:59:11;;;;;;;0.10;0.10;;;1.70;99.90;226.50;231333.00;;;;5019392;28;20225;-72
2021/12/12 05:01:45;;;;;;;0.10;0.10;;;1.70;99.90;226.50;231333.00;;;;5019072;28;20219;-72
2021/12/12 05:04:23;;;;;;;0.10;0.10;;;1.60;99.90;226.50;231333.00;;;;5019419;28;20695;-71
2021/12/12 05:07:00;;;;;;;0.10;0.10;;;1.60;99.90;226.50;231333.00;;;;5020027;28;21402;-71
2021/12/12 05:09:34;;;;;;;0.10;0.10;;;1.60;99.90;226.50;231333.00;;;;5022019;28;20257;-71
2021/12/12 05:12:12;;;;;;;0.10;0.10;;;1.50;99.90;226.50;231333.00;;;;5019391;28;20240;-72
2021/12/12 05:14:46;;;;;;;0.10;0.10;;;1.50;99.90;226.50;231333.00;;;;5020421;28;20248;-72
2021/12/12 05:17:22;;;;;;;0.10;0.10;;;1.50;99.90;226.50;231333.00;;;;5019909;28;20219;-72
2021/12/12 05:19:56;;;;;;;0.10;0.10;;;1.40;99.90;226.50;231333.00;;;;5018554;28;20669;-72
2021/12/12 05:22:33;;;;;;;0.10;0.10;;;1.50;99.90;226.50;231333.00;;;;5018936;28;20234;-72
2021/12/12 05:25:06;;;;;;;0.10;0.10;;;1.50;99.90;226.50;231333.00;;;;5019873;28;20202;-72
2021/12/12 05:27:39;;;;;;;0.10;0.10;;;1.40;99.90;226.50;231333.00;;;;5018960;28;20195;-72
2021/12/12 05:30:12;;;;;;;0.10;0.10;;;1.40;99.90;226.50;231333.00;;;;5020351;28;20249;-72
2021/12/12 05:32:42;;;;;;;0.10;0.10;;;1.50;99.90;226.50;231333.00;;;;5020255;28;20265;-72
2021/12/12 05:35:13;;;;;;;0.10;0.10;;;1.50;99.90;226.50;231333.00;;;;5019305;28;20249;-72
2021/12/12 05:37:42;;;;;;;0.10;0.10;;;1.50;99.90;226.50;231333.00;;;;5018347;28;20249;-72
2021/12/12 05:40:12;;;;;;;0.10;0.10;;;1.50;99.90;226.50;231333.00;;;;5020053;28;20250;-72
2021/12/12 05:42:43;;;;;;;0.10;0.10;;;1.60;99.90;226.50;231333.00;;;;5019318;28;20223;-73
2021/12/12 05:45:12;;;;;;;0.10;0.10;;;1.60;99.90;226.50;231333.00;;;;5019635;28;20192;-73
2021/12/12 05:47:41;;;;;;;0.10;0.10;;;1.60;99.90;226.50;231333.00;;;;5015938;28;20661;-72
2021/12/12 05:50:13;;;;;;;0.10;0.10;;;1.60;99.90;226.50;231333.00;;;;5019876;28;20266;-73
2021/12/12 05:52:44;;;;;;;0.10;0.10;;;1.70;99.90;226.50;231333.00;;;;5019878;28;20658;-73
2021/12/12 05:55:17;;;;;;;0.10;0.10;;;1.70;99.90;226.50;231333.00;;;;5019552;28;20199;-73
2021/12/12 05:57:53;;;;;;;0.10;0.10;;;1.70;99.90;226.50;231333.00;;;;5019272;28;20249;-74
2021/12/12 06:00:34;;;;;;;0.10;0.10;;;1.70;99.90;226.50;231333.00;;;;5019571;28;20619;-73
2021/12/12 06:03:07;;;;;;;0.10;0.10;;;1.80;99.90;226.50;231333.00;;;;5019468;28;20223;-72
2021/12/12 06:05:35;;;;;;;0.10;0.10;;;1.80;99.90;226.50;231333.00;;;;5020974;28;20627;-72
2021/12/12 06:08:05;;;;;;;0.10;0.10;;;1.80;99.90;226.50;231333.00;;;;5021001;28;20210;-74
2021/12/12 06:10:36;;;;;;;0.10;0.10;;;1.80;99.90;226.50;231333.00;;;;5020080;28;20254;-73
2021/12/12 06:13:11;;;;;;;0.10;0.10;;;1.80;99.90;226.50;231333.00;;;;5002931;28;20203;-74
2021/12/12 06:15:42;;;;;;;0.10;0.10;;;1.80;99.90;226.50;231333.00;;;;5021283;28;20256;-77
2021/12/12 06:18:12;;;;;;;0.10;0.10;;;1.80;99.90;226.50;231333.00;;;;5021995;28;20680;-73
2021/12/12 06:20:45;;;;;;;0.10;0.10;;;1.80;99.90;226.50;231333.00;;;;5023982;28;20199;-73
2021/12/12 06:23:17;;;;;;;0.10;0.10;;;1.80;99.90;226.50;231333.00;;;;5025254;28;20284;-74
2021/12/12 06:25:48;;;;;;;0.10;0.10;;;1.90;99.90;226.50;231333.00;;;;5027306;28;20665;-73
2021/12/12 06:28:25;;;;;;;0.10;0.10;;;1.90;99.90;226.50;231333.00;;;;5021085;28;20209;-74
2021/12/12 06:30:53;;;;;;;0.10;0.10;;;1.90;99.90;226.50;231333.00;;;;5022848;28;20254;-73
2021/12/12 06:33:22;;;;;;;0.10;0.10;;;1.90;99.90;226.50;231333.00;;;;5027921;28;20226;-72
2021/12/12 06:35:52;;;;;;;0.10;0.10;;;1.90;99.90;226.50;231333.00;;;;5010481;28;20632;-74
2021/12/12 06:38:22;;;;;;;0.10;0.10;;;1.80;99.90;226.50;231333.00;;;;5028372;28;20191;-74
2021/12/12 06:40:52;;;;;;;0.10;0.10;;;1.80;99.90;226.50;231333.00;;;;5024140;28;20199;-74
2021/12/12 06:43:23;;;;;;;0.10;0.10;;;1.80;99.90;226.50;231333.00;;;;5023795;28;20355;-74
2021/12/12 06:45:52;;;;;;;0.10;0.10;;;1.80;99.90;226.50;231333.00;;;;5021259;28;20195;-73
2021/12/12 06:48:21;;;;;;;0.10;0.10;;;1.80;99.90;226.50;231333.00;;;;5023308;28;20250;-72
2021/12/12 06:50:54;;;;;;;0.10;0.10;;;1.80;99.90;226.50;231333.00;;;;5022214;28;20224;-73
2021/12/12 06:53:27;;;;;;;0.10;0.10;;;1.90;99.90;226.50;231333.00;;;;5021751;28;20285;-73
2021/12/12 06:55:57;;;;;;;0.10;0.10;;;1.90;99.90;226.50;231333.00;;;;5021358;28;20187;-73
2021/12/12 06:58:30;;;;;;;0.10;0.10;;;1.90;99.90;226.50;231333.00;;;;5021369;28;20192;-73
2021/12/12 07:01:05;;;;;;;0.10;0.10;;;1.90;99.90;226.50;231333.00;;;;5021157;28;20199;-74
2021/12/12 07:03:36;;;;;;;0.10;0.10;;;2.00;99.90;226.50;231333.00;;;;5021538;28;20230;-74
2021/12/12 07:06:05;;;;;;;0.10;0.10;;;2.00;99.90;226.50;231333.00;;;;5022098;28;20262;-72
2021/12/12 07:08:34;;;;;;;0.20;0.20;;;2.10;99.90;226.50;231333.00;;;;5022277;28;20190;-74
2021/12/12 07:11:04;;;;;;;0.10;0.10;;;2.10;99.90;226.50;231333.00;;;;5021615;28;20195;-73
2021/12/12 07:13:34;;;;;;;0.10;0.10;;;2.10;99.90;226.50;231333.00;;;;5020930;28;20227;-75
2021/12/12 07:16:05;;;;;;;0.10;0.10;;;2.20;99.90;226.50;231333.00;;;;5017351;28;20680;-73
2021/12/12 07:18:36;;;;;;;0.10;0.10;;;2.20;99.90;226.50;231333.00;;;;5021722;28;20196;-75
2021/12/12 07:21:09;;;;;;;0.10;0.10;;;2.30;99.90;226.50;231333.00;;;;5017020;28;20755;-73
2021/12/12 07:23:40;;;;;;;0.10;0.10;;;2.30;99.90;226.50;231333.00;;;;5003082;28;20230;-75
2021/12/12 07:26:11;;;;;;;0.10;0.10;;;2.30;99.90;226.50;231333.00;;;;5000586;28;20227;-74
2021/12/12 07:28:42;;;;;;;0.10;0.10;;;2.30;99.90;226.50;231333.00;;;;5020486;28;20249;-74
2021/12/12 07:31:14;;;;;;;0.10;0.10;;;2.30;99.90;226.50;231333.00;;;;5021887;28;20191;-74
2021/12/12 07:33:45;;;;;;;0.10;0.10;;;2.30;99.90;226.50;231333.00;;;;5020412;28;20239;-74
2021/12/12 07:36:14;;;;;;;0.10;0.10;;;2.30;99.90;226.50;231333.00;;;;5018137;28;20199;-74
2021/12/12 07:38:45;;;;;;;0.10;0.10;;;2.40;99.90;226.50;231333.00;;;;5019051;28;20191;-74
2021/12/12 07:41:18;;;;;;;0.10;0.10;;;2.40;99.90;226.50;231333.00;;;;5021602;28;20219;-74
2021/12/12 07:43:48;;;;;;;0.10;0.10;;;2.40;99.90;226.50;231333.00;;;;5021777;28;20226;-74
2021/12/12 07:46:17;;;;;;;0.10;0.10;;;2.40;99.90;226.50;231333.00;;;;5022640;28;20229;-73
2021/12/12 07:48:48;;;;;;;0.10;0.10;;;2.50;99.90;226.50;231333.00;;;;5019796;28;20188;-74
2021/12/12 07:51:19;;;;;;;0.10;0.10;;;2.60;99.90;226.50;231333.00;;;;5019940;28;20199;-73
2021/12/12 07:53:52;;;;;;;0.10;0.10;;;2.50;99.90;226.50;231333.00;;;;5020811;28;20622;-73
2021/12/12 07:56:21;;;;;;;0.10;0.10;;;2.50;99.90;226.50;231333.00;;;;5020150;28;20652;-73
2021/12/12 07:58:51;;;;;;;0.10;0.10;;;2.60;99.90;226.50;231333.00;;;;5019807;28;20587;-73
2021/12/12 08:01:20;;;;;;;0.10;0.10;;;2.60;99.90;226.50;231333.00;;;;5019257;28;20334;-73
2021/12/12 08:03:51;;;;;;;0.10;0.10;;;2.70;99.90;226.50;231333.00;;;;5019939;28;20233;-72
2021/12/12 08:06:20;;;;;;;0.10;0.10;;;2.70;99.90;226.50;231333.00;;;;5019530;28;20660;-72
2021/12/12 08:08:48;;;;;;;0.10;0.10;;;2.80;99.90;226.50;231333.00;;;;5019747;28;20194;-72
2021/12/12 08:11:19;;;;;;;0.10;0.10;;;2.80;99.90;226.50;231333.00;;;;5021229;28;20207;-72
2021/12/12 08:13:47;;;;;;;0.10;0.10;;;2.80;99.90;226.50;231333.00;;;;5019714;28;20214;-73
2021/12/12 08:16:19;;;;;;;0.10;0.10;;;2.80;99.90;226.50;231333.00;;;;5020793;28;20200;-73
2021/12/12 08:18:48;;;;;;;0.10;0.10;;;2.80;99.90;226.50;231333.00;;;;5016685;28;20200;-73
2021/12/12 08:21:18;;;;;;;0.10;0.10;;;2.80;99.90;226.50;231333.00;;;;5019168;28;20191;-73
2021/12/12 08:23:47;;;;;;;0.10;0.10;;;2.90;99.90;226.50;231333.00;;;;5019455;28;20215;-72
2021/12/12 08:26:18;;;;;;;0.10;0.10;;;2.80;99.90;226.50;231333.00;;;;5019461;28;20191;-72
2021/12/12 08:28:48;;;;;;;0.10;0.10;;;2.90;99.90;226.50;231333.00;;;;5022065;28;20199;-72
2021/12/12 08:31:19;;;;;;;0.10;0.10;;;2.90;99.90;226.50;231333.00;;;;5003005;28;20191;-73
2021/12/12 08:33:47;;;;;;;0.10;0.10;;;2.90;99.90;226.50;231333.00;;;;5021207;28;20218;-72
2021/12/12 08:36:17;;;;;;;0.10;0.10;;;2.90;99.90;226.50;231333.00;;;;5018448;28;20249;-73
2021/12/12 08:38:45;;;;;;;0.10;0.10;;;2.90;99.90;226.50;231333.00;;;;5018998;28;20242;-73
2021/12/12 08:41:16;;;;;;;0.10;0.10;;;2.90;99.90;226.50;231333.00;;;;5019489;28;20198;-73
2021/12/12 08:43:46;;;;;;;0.10;0.10;;;2.90;99.90;226.50;231333.00;;;;5022109;28;20219;-73
2021/12/12 08:46:17;;;;;;;0.10;0.10;;;2.90;99.90;226.50;231333.00;;;;5018521;28;20192;-73
2021/12/12 08:48:49;;;;;;;0.10;0.10;;;2.90;99.90;226.50;231333.00;;;;5020157;28;20195;-72
2021/12/12 08:51:31;;;;;;;0.10;0.10;;;3.00;99.90;226.50;231333.00;;;;5020442;28;20203;-74
2021/12/12 08:54:13;;;;;;;0.10;0.10;;;3.00;99.90;226.50;231333.00;;;;5020562;28;20235;-73
2021/12/12 08:56:45;;;;;;;0.10;0.10;;;3.00;99.90;226.50;231333.00;;;;5019241;28;20198;-73
2021/12/12 08:59:20;;;;;;;0.10;0.10;;;3.00;99.90;226.50;231333.00;;;;5019544;28;20235;-73
2021/12/12 09:01:55;;;;;;;0.10;0.10;;;3.00;99.90;226.50;231333.00;;;;5019690;28;20744;-74
2021/12/12 09:04:24;;;;;;;0.10;0.10;;;3.10;99.90;226.50;231333.00;;;;5019064;28;20298;-74
2021/12/12 09:07:09;;;;;;;0.10;0.10;;;3.10;99.90;226.50;231333.00;;;;5016961;28;20191;-73
2021/12/12 09:09:44;;;;;;;0.10;0.10;;;3.10;99.90;226.50;231333.00;;;;5019134;28;20599;-74
2021/12/12 09:12:18;;;;;;;0.20;0.20;;;3.20;99.90;226.50;231333.00;;;;5019168;28;20214;-74
2021/12/12 09:14:51;;;;;;;0.10;0.10;;;3.20;99.90;226.50;159510.00;;;;5019116;28;20252;-74
2021/12/12 09:17:27;;;;;;;0.10;0.10;;;3.30;99.90;226.50;231333.00;;;;5018414;28;20199;-74
2021/12/12 09:20:03;;;;;;;0.10;0.10;;;3.30;99.90;226.50;231333.00;;;;5018941;28;20199;-74
2021/12/12 09:22:40;;;;;;;0.10;0.10;;;3.30;99.90;226.50;159530.00;;;;5017464;28;20219;-73
2021/12/12 09:25:22;;;;;;;0.10;0.10;;;3.30;99.90;226.50;231333.00;;;;5017462;28;20195;-74
2021/12/12 09:28:00;;;;;;;0.10;0.10;;;3.40;99.90;226.50;231333.00;;;;5018101;28;20719;-74
2021/12/12 09:30:29;;;;;;;0.10;0.10;;;3.40;99.90;226.50;231333.00;;;;5019073;28;20207;-74
2021/12/12 09:33:05;;;;;;;0.10;0.10;;;3.40;99.90;226.50;231333.00;;;;5016540;28;20272;-73
2021/12/12 09:35:41;;;;;;;0.10;0.10;;;3.50;99.90;226.50;231333.00;;;;5019207;28;20234;-73
2021/12/12 09:38:16;;;;;;;0.10;0.10;;;3.50;99.90;226.50;231333.00;;;;5018868;28;20245;-73
2021/12/12 09:41:18;;;;;;;0.10;0.10;;;3.50;99.90;226.50;159427.00;;;;5019711;28;20195;-73
2021/12/12 09:44:29;;;;;;;0.10;0.10;;;3.50;99.90;226.50;231333.00;;;;5019307;28;20777;-74
2021/12/12 09:47:29;;;;;;;0.10;0.10;;;3.50;99.90;226.50;231333.00;;;;5019303;28;20186;-74
2021/12/12 09:53:41;;;;;;;0.10;0.10;;;3.50;99.90;226.50;231333.00;;;;5020695;28;20238;-74
2021/12/12 09:56:19;;;;;;;0.10;0.10;;;3.60;99.90;226.50;159829.00;;;;5022438;28;20216;-74
2021/12/12 09:58:55;;;;;;;0.10;0.10;;;3.50;99.90;226.50;231333.00;;;;5022819;28;20588;-73
2021/12/12 10:01:30;;;;;;;0.10;0.10;;;3.50;99.90;226.50;231333.00;;;;5022417;28;20211;-73
2021/12/12 10:04:21;;;;;;;0.10;0.10;;;3.60;99.90;226.50;231333.00;;;;5023738;28;20636;-73
2021/12/12 10:07:03;;;;;;;0.10;0.10;;;3.60;99.90;226.50;231333.00;;;;5024120;28;20669;-74
2021/12/12 10:09:38;;;;;;;0.10;0.10;;;3.50;99.90;226.50;231333.00;;;;5024765;28;20203;-73
2021/12/12 10:12:16;;;;;;;0.10;0.10;;;3.50;99.90;226.50;231333.00;;;;5021219;28;20211;-73
2021/12/12 10:14:50;;;;;;;0.10;0.10;;;3.50;99.90;226.50;231333.00;;;;5022473;28;20223;-73
2021/12/12 10:17:29;;;;;;;0.10;0.10;;;3.50;99.90;226.50;231333.00;;;;5020916;28;20195;-73
2021/12/12 10:20:05;;;;;;;0.10;0.10;;;3.50;99.90;226.50;231333.00;;;;5022016;28;20206;-73
2021/12/12 10:23:00;;;;;;;0.10;0.10;;;3.50;99.90;226.50;231333.00;;;;5021817;28;20275;-73
2021/12/12 10:25:36;;;;;;;0.10;0.10;;;3.50;99.90;226.50;231333.00;;;;5022037;28;20203;-74
2021/12/12 10:28:18;;;;;;;0.10;0.10;;;3.50;99.90;226.50;231333.00;;;;5023278;28;20203;-73
2021/12/12 10:30:57;;;;;;;0.20;0.20;;;3.50;99.90;226.50;231333.00;;;;5022980;28;20207;-73
2021/12/12 10:33:35;;;;;;;0.10;0.10;;;3.60;99.90;226.50;231333.00;;;;5022833;28;20615;-73
2021/12/12 10:36:10;;;;;;;0.10;0.10;;;3.60;99.90;226.50;231333.00;;;;5020610;28;20604;-73
2021/12/12 10:38:52;;;;;;;0.10;0.10;;;3.60;99.90;226.50;231333.00;;;;5021680;28;20249;-74
2021/12/12 10:41:27;;;;;;;0.10;0.10;;;3.60;99.90;226.50;231333.00;;;;5020081;28;20578;-73
2021/12/12 10:44:01;;;;;;;0.10;0.10;;;3.60;99.90;226.50;231333.00;;;;5025206;28;20696;-73
2021/12/12 10:46:42;;;;;;;0.10;0.10;;;3.60;99.90;226.50;231333.00;;;;5025866;28;20207;-74
2021/12/12 10:49:21;;;;;;;0.10;0.10;;;3.50;99.90;226.50;231333.00;;;;5028895;28;20203;-74
2021/12/12 10:51:58;;;;;;;0.10;0.10;;;3.50;99.90;226.50;231333.00;;;;5026769;28;20194;-74
2021/12/12 10:54:36;;;;;;;0.10;0.10;;;3.50;99.90;226.50;231333.00;;;;5026547;28;20237;-73
2021/12/12 10:57:11;;;;;;;0.10;0.10;;;3.40;99.90;226.50;231333.00;;;;5023264;28;20194;-73
2021/12/12 10:59:48;;;;;;;0.10;0.10;;;3.50;99.90;226.50;231333.00;;;;5023846;28;20222;-74
2021/12/12 11:02:24;;;;;;;0.10;0.10;;;3.50;99.90;226.50;231333.00;;;;5022469;28;20230;-75
2021/12/12 11:05:02;;;;;;;0.10;0.10;;;3.50;99.90;226.50;231333.00;;;;5021833;28;20222;-73
2021/12/12 11:07:36;;;;;;;0.10;0.10;;;3.40;99.90;226.50;231333.00;;;;5021662;28;20216;-74
2021/12/12 11:10:12;;;;;;;0.10;0.10;;;3.50;99.90;226.50;231333.00;;;;5023125;28;21529;-73
2021/12/12 11:12:49;;;;;;;0.10;0.10;;;3.40;99.90;226.50;231333.00;;;;5021835;28;20630;-73
2021/12/12 11:15:25;;;;;;;0.10;0.10;;;3.40;99.90;226.50;231333.00;;;;5022869;28;20199;-73
2021/12/12 11:18:01;;;;;;;0.10;0.10;;;3.50;99.90;226.50;231333.00;;;;5022124;28;20229;-73
2021/12/12 11:20:35;;;;;;;0.10;0.10;;;3.50;99.90;226.50;231333.00;;;;5022566;28;20656;-73
2021/12/12 11:23:09;;;;;;;0.10;0.10;;;3.50;99.90;226.50;231333.00;;;;5022492;28;20257;-73
2021/12/12 11:25:43;;;;;;;0.20;0.20;;;3.50;99.90;226.50;231333.00;;;;5021865;28;20697;-72
2021/12/12 11:28:17;;;;;;;0.10;0.10;;;3.50;99.90;226.50;231333.00;;;;5021793;28;20250;-73
2021/12/12 11:30:49;;;;;;;0.10;0.10;;;3.50;99.90;226.50;231333.00;;;;5021404;28;20184;-73
2021/12/12 11:33:21;;;;;;;0.10;0.10;;;3.50;99.90;226.50;231333.00;;;;5021640;28;20221;-73
2021/12/12 11:35:57;;;;;;;0.10;0.10;;;3.50;99.90;226.50;231333.00;;;;5021784;28;20203;-73